Time;durP1;ratioP1;P1;durP2;ratioP2;P2;SDS_P1;SDS_P2;PMS_P1;PMS_P2;Temp;Humidity;BMP_temperature;BMP_pressure;BME280_temperature;BME280_humidity;BME280_pressure;Samples;Min_cycle;Max_cycle;Signal;HPM_P1;HPM_P2
2023/06/02 00:01:15;;;;;;;15.70;5.07;;;;;;;20.46;55.69;97769.75;4455785;32;20096;-81
2023/06/02 00:03:43;;;;;;;14.95;5.62;;;;;;;20.39;56.47;97771.22;4455624;32;20132;-81
2023/06/02 00:06:14;;;;;;;12.65;5.75;;;;;;;19.79;58.48;97764.25;4455251;32;20101;-81
2023/06/02 00:08:41;;;;;;;11.48;5.55;;;;;;;19.53;59.87;97763.75;4455630;32;20111;-81
2023/06/02 00:11:10;;;;;;;11.93;5.40;;;;;;;20.03;58.48;97761.31;4455403;32;20135;-81
2023/06/02 00:13:37;;;;;;;11.27;5.12;;;;;;;20.61;56.47;97756.25;4455099;32;20148;-81
2023/06/02 00:16:04;;;;;;;13.80;6.12;;;;;;;20.67;56.58;97759.19;4455814;32;20093;-81
2023/06/02 00:18:37;;;;;;;12.75;5.87;;;;;;;20.09;59.45;97752.91;4457421;32;20497;-81
2023/06/02 00:21:06;;;;;;;11.90;6.05;;;;;;;19.73;61.96;97751.66;4456873;32;20089;-81
2023/06/02 00:23:33;;;;;;;14.30;5.43;;;;;;;20.10;61.76;97746.75;4457278;32;20101;-81
2023/06/02 00:26:01;;;;;;;11.40;5.37;;;;;;;20.22;62.20;97741.25;4457281;32;20439;-81
2023/06/02 00:28:28;;;;;;;14.35;6.00;;;;;;;20.21;62.69;97747.47;4456893;32;20121;-81
2023/06/02 00:30:55;;;;;;;11.38;5.93;;;;;;;20.30;62.55;97748.44;4457318;32;20169;-81
2023/06/02 00:33:22;;;;;;;11.75;5.30;;;;;;;20.35;62.12;97748.88;4457341;32;20487;-81
2023/06/02 00:35:49;;;;;;;12.90;5.53;;;;;;;20.64;61.03;97759.47;4456914;32;20431;-81
2023/06/02 00:38:17;;;;;;;11.38;5.60;;;;;;;20.73;59.72;97745.53;4457223;32;20129;-81
2023/06/02 00:40:43;;;;;;;12.30;5.75;;;;;;;21.48;55.58;97745.81;4457238;32;20145;-81
2023/06/02 00:43:10;;;;;;;12.50;6.35;;;;;;;21.46;55.55;97747.75;4456975;32;20148;-81
2023/06/02 00:45:37;;;;;;;11.68;5.30;;;;;;;21.41;54.68;97753.44;4457128;32;20153;-81
2023/06/02 00:48:04;;;;;;;10.75;5.30;;;;;;;20.96;55.35;97750.53;4456780;32;20488;-81
2023/06/02 00:50:32;;;;;;;12.63;5.50;;;;;;;20.87;56.85;97751.34;4457101;32;20154;-81
2023/06/02 00:53:00;;;;;;;13.60;6.03;;;;;;;20.32;59.58;97751.78;4457173;32;20100;-81
2023/06/02 00:55:29;;;;;;;10.82;5.40;;;;;;;20.62;58.25;97750.06;4456798;32;20118;-81
2023/06/02 00:57:58;;;;;;;11.40;5.72;;;;;;;20.77;57.35;97744.31;4457086;32;20158;-81
2023/06/02 01:00:26;;;;;;;12.70;5.72;;;;;;;21.03;56.18;97741.94;4457072;32;20093;-81
2023/06/02 01:02:57;;;;;;;12.55;5.32;;;;;;;20.89;56.33;97739.75;4456836;32;20447;-81
2023/06/02 01:05:25;;;;;;;12.45;5.15;;;;;;;20.67;57.47;97745.25;4457062;32;20395;-81
2023/06/02 01:07:58;;;;;;;12.32;5.18;;;;;;;20.91;57.27;97737.81;4457089;32;20149;-81
2023/06/02 01:10:26;;;;;;;13.43;5.40;;;;;;;21.30;55.03;97736.03;4455507;32;20461;-81
2023/06/02 01:12:53;;;;;;;9.18;4.35;;;;;;;21.55;54.05;97733.78;4457000;32;20155;-81
2023/06/02 01:15:20;;;;;;;12.00;5.50;;;;;;;21.70;52.66;97732.38;4448603;32;232136;-81
2023/06/02 01:17:51;;;;;;;13.60;4.85;;;;;;;21.97;51.52;97744.72;4456718;32;20164;-81
2023/06/02 01:20:21;;;;;;;12.40;5.53;;;;;;;20.90;54.04;97740.56;4456677;32;20105;-81
2023/06/02 01:23:16;;;;;;;13.27;5.12;;;;;;;21.13;54.23;97738.50;4455890;32;20101;-81
2023/06/02 01:25:44;;;;;;;13.15;5.30;;;;;;;21.58;52.95;97736.94;4455773;32;20145;-81
2023/06/02 01:28:11;;;;;;;12.45;5.35;;;;;;;20.84;55.48;97733.25;4456749;32;20105;-81
2023/06/02 01:30:38;;;;;;;11.20;5.15;;;;;;;20.83;55.72;97739.47;4456537;32;20376;-81
2023/06/02 01:33:16;;;;;;;10.68;5.57;;;;;;;21.07;53.78;97742.53;4456875;32;20175;-81
2023/06/02 01:35:48;;;;;;;11.63;5.80;;;;;;;21.10;53.59;97739.63;4456915;32;20073;-81
2023/06/02 01:38:17;;;;;;;11.55;5.28;;;;;;;20.41;55.49;97737.84;4456541;32;20428;-81
2023/06/02 01:40:45;;;;;;;10.95;5.12;;;;;;;20.58;55.49;97736.41;4456736;32;20093;-81
2023/06/02 01:43:12;;;;;;;14.07;5.28;;;;;;;20.59;55.18;97732.00;4456904;32;20119;-81
2023/06/02 01:45:41;;;;;;;11.82;5.03;;;;;;;21.31;52.89;97735.06;4455278;32;20104;-81
2023/06/02 01:48:09;;;;;;;12.55;4.90;;;;;;;21.06;53.12;97725.97;4456754;32;20177;-81
2023/06/02 01:50:37;;;;;;;11.35;4.90;;;;;;;20.19;55.79;97727.59;4456648;32;20158;-81
2023/06/02 01:53:04;;;;;;;10.80;5.30;;;;;;;19.24;59.94;97722.53;4455270;32;20615;-81
2023/06/02 01:55:31;;;;;;;12.50;5.75;;;;;;;19.47;59.53;97727.66;4456698;32;20102;-81
2023/06/02 01:57:58;;;;;;;12.37;5.18;;;;;;;19.75;59.01;97719.16;4456707;32;20147;-81
2023/06/02 02:00:26;;;;;;;11.90;5.47;;;;;;;20.45;57.20;97725.34;4456167;32;20085;-81
2023/06/02 02:02:53;;;;;;;11.45;5.10;;;;;;;20.85;55.23;97720.03;4455471;32;20093;-81
2023/06/02 02:05:20;;;;;;;12.48;5.30;;;;;;;20.73;54.33;97718.47;4456216;32;20077;-81
2023/06/02 02:07:50;;;;;;;10.95;5.05;;;;;;;21.19;52.54;97709.94;4455530;32;20172;-81
2023/06/02 02:10:18;;;;;;;11.12;5.28;;;;;;;20.86;52.87;97713.81;4456568;32;20172;-81
2023/06/02 02:12:45;;;;;;;10.52;5.00;;;;;;;21.24;52.06;97709.50;4455038;32;20097;-81
2023/06/02 02:15:12;;;;;;;10.35;5.07;;;;;;;21.11;51.93;97708.97;4456627;32;20742;-81
2023/06/02 02:17:44;;;;;;;10.38;4.60;;;;;;;20.83;53.12;97706.19;4456593;32;20423;-81
2023/06/02 02:20:18;;;;;;;10.85;5.15;;;;;;;20.79;52.90;97713.53;4454918;32;20104;-81
2023/06/02 02:22:45;;;;;;;11.35;5.25;;;;;;;20.43;54.12;97709.78;4456586;32;20096;-81
2023/06/02 02:25:13;;;;;;;13.30;5.68;;;;;;;20.73;53.50;97706.19;4455239;32;20103;-81
2023/06/02 02:27:40;;;;;;;12.52;5.37;;;;;;;20.35;55.42;97714.81;4456044;32;20161;-81
2023/06/02 02:30:07;;;;;;;14.25;5.62;;;;;;;20.42;55.42;97712.50;4456448;32;20153;-81
2023/06/02 02:32:36;;;;;;;13.20;5.20;;;;;;;19.79;56.87;97712.72;4456520;32;20093;-81
2023/06/02 02:35:03;;;;;;;12.13;5.80;;;;;;;19.65;57.68;97713.87;4456117;32;20089;-81
2023/06/02 02:37:31;;;;;;;14.55;5.85;;;;;;;19.61;58.55;97712.47;4455304;32;20120;-81
2023/06/02 02:40:11;;;;;;;11.25;5.10;;;;;;;19.57;58.60;97705.03;4455448;32;20115;-82
2023/06/02 02:42:38;;;;;;;11.38;4.95;;;;;;;19.90;57.64;97717.84;4456413;32;20144;-81
2023/06/02 02:45:07;;;;;;;11.52;5.53;;;;;;;20.37;55.50;97717.28;4456394;32;20138;-81
2023/06/02 02:47:34;;;;;;;13.90;6.05;;;;;;;20.38;54.53;97709.28;4456063;32;20089;-81
2023/06/02 02:50:01;;;;;;;11.15;5.32;;;;;;;20.79;53.28;97708.28;4456352;32;20140;-81
2023/06/02 02:52:28;;;;;;;11.45;5.53;;;;;;;20.23;54.28;97706.25;4456300;32;20149;-81
2023/06/02 02:54:55;;;;;;;13.13;5.57;;;;;;;20.25;54.61;97713.13;4455955;32;20486;-81
2023/06/02 02:57:22;;;;;;;13.35;5.03;;;;;;;20.51;54.14;97701.22;4456369;32;20166;-81
2023/06/02 02:59:49;;;;;;;10.52;4.97;;;;;;;20.51;54.15;97701.22;4456222;32;20108;-81
2023/06/02 03:02:16;;;;;;;9.55;4.43;;;;;;;20.62;53.07;97698.47;4456040;32;20136;-81
2023/06/02 03:04:43;;;;;;;10.85;4.93;;;;;;;20.43;53.50;97701.09;4456184;32;20554;-81
2023/06/02 03:07:10;;;;;;;12.63;4.80;;;;;;;20.12;54.55;97700.28;4456268;32;20490;-81
2023/06/02 03:09:39;;;;;;;11.57;5.28;;;;;;;20.01;55.15;97703.84;4455806;32;20093;-81
2023/06/02 03:12:07;;;;;;;11.60;4.97;;;;;;;20.38;54.29;97705.84;4456252;32;20097;-81
2023/06/02 03:14:33;;;;;;;12.07;5.65;;;;;;;20.71;53.60;97700.25;4456202;32;20148;-81
2023/06/02 03:17:01;;;;;;;10.77;5.32;;;;;;;20.58;54.25;97697.09;4455731;32;20158;-81
2023/06/02 03:19:28;;;;;;;11.88;5.45;;;;;;;20.62;54.41;97690.59;4454741;32;20600;-81
2023/06/02 03:21:56;;;;;;;14.05;5.62;;;;;;;20.65;54.69;97698.22;4456187;32;20104;-81
2023/06/02 03:24:23;;;;;;;13.00;5.15;;;;;;;20.85;54.19;97698.22;4455793;32;20085;-81
2023/06/02 03:26:55;;;;;;;12.93;5.30;;;;;;;20.38;54.55;97698.00;4455940;32;20089;-81
2023/06/02 03:29:22;;;;;;;11.23;5.40;;;;;;;19.93;56.30;97701.03;4454698;32;20105;-82
2023/06/02 03:31:52;;;;;;;11.05;4.55;;;;;;;20.68;54.58;97694.47;4456063;32;20133;-81
2023/06/02 03:34:20;;;;;;;11.65;5.43;;;;;;;21.03;53.60;97704.41;4456038;32;20572;-81
2023/06/02 03:36:48;;;;;;;12.77;5.15;;;;;;;20.59;55.14;97696.12;4455618;32;20094;-81
2023/06/02 03:39:15;;;;;;;12.88;6.00;;;;;;;21.22;54.46;97701.78;4455933;32;20100;-81
2023/06/02 03:41:42;;;;;;;12.35;5.60;;;;;;;20.91;56.99;97708.13;4454659;32;20093;-81
2023/06/02 03:44:09;;;;;;;12.05;5.43;;;;;;;20.98;57.71;97711.88;4455631;32;20106;-81
2023/06/02 03:46:36;;;;;;;11.77;5.53;;;;;;;21.31;58.27;97708.84;4455899;32;20080;-81
2023/06/02 03:49:03;;;;;;;13.45;5.22;;;;;;;22.04;55.76;97711.66;4455738;32;20105;-81
2023/06/02 03:51:30;;;;;;;15.60;4.50;;;;;;;22.47;53.34;97718.91;4455493;32;20084;-81
2023/06/02 03:53:57;;;;;;;10.02;4.80;;;;;;;22.75;50.63;97708.31;4455809;32;20092;-81
2023/06/02 03:56:25;;;;;;;10.57;4.70;;;;;;;23.47;48.45;97717.00;4455767;32;20093;-81
2023/06/02 03:58:52;;;;;;;12.93;4.85;;;;;;;23.81;47.83;97723.16;4455290;32;20127;-82
2023/06/02 04:01:20;;;;;;;11.07;5.90;;;;;;;24.01;47.27;97715.84;4455686;32;20084;-82
2023/06/02 04:03:47;;;;;;;13.52;5.28;;;;;;;24.73;45.81;97717.09;4454517;32;20568;-82
2023/06/02 04:06:15;;;;;;;9.27;4.85;;;;;;;24.96;45.57;97721.75;4455067;32;20116;-81
2023/06/02 04:08:41;;;;;;;11.40;4.60;;;;;;;25.30;45.01;97716.31;4455578;32;20141;-81
2023/06/02 04:11:08;;;;;;;12.07;5.28;;;;;;;25.79;43.93;97717.13;4455434;32;20440;-81
2023/06/02 04:13:35;;;;;;;10.00;5.10;;;;;;;26.50;42.16;97715.37;4455207;32;20152;-82
2023/06/02 04:16:02;;;;;;;11.15;5.00;;;;;;;26.97;41.16;97715.22;4455451;32;20101;-82
2023/06/02 04:18:31;;;;;;;11.55;5.00;;;;;;;27.27;41.06;97716.19;4455146;32;20429;-82
2023/06/02 04:20:58;;;;;;;11.25;5.00;;;;;;;27.43;40.31;97723.16;4455126;32;20104;-82
2023/06/02 04:23:25;;;;;;;10.88;4.70;;;;;;;27.29;40.69;97714.16;4455369;32;20085;-82
2023/06/02 04:25:52;;;;;;;13.60;5.57;;;;;;;27.75;39.74;97726.50;4454842;32;20418;-82
2023/06/02 04:28:20;;;;;;;11.75;5.00;;;;;;;28.07;39.46;97715.53;4455202;32;20101;-81
2023/06/02 04:30:55;;;;;;;10.60;4.65;;;;;;;27.92;40.02;97720.84;4455411;32;20145;-81
2023/06/02 04:33:23;;;;;;;9.63;4.62;;;;;;;28.44;39.55;97719.09;4455720;32;20089;-79
2023/06/02 04:35:50;;;;;;;9.48;4.55;;;;;;;29.03;37.93;97719.78;4455149;32;20116;-83
2023/06/02 04:38:18;;;;;;;9.80;4.80;;;;;;;29.54;37.24;97719.59;4455074;32;20097;-83
2023/06/02 04:40:45;;;;;;;10.85;5.03;;;;;;;30.24;36.18;97720.44;4454799;32;20137;-84
2023/06/02 04:43:12;;;;;;;8.70;4.53;;;;;;;30.81;35.76;97719.22;4455136;32;20088;-84
2023/06/02 04:45:47;;;;;;;12.73;5.25;;;;;;;31.66;34.56;97723.78;4454954;32;20158;-82
2023/06/02 04:48:14;;;;;;;10.45;4.97;;;;;;;32.23;33.43;97721.44;4454643;32;20115;-82
2023/06/02 04:50:41;;;;;;;10.73;4.78;;;;;;;32.88;32.54;97724.03;4453794;32;20107;-82
2023/06/02 04:53:08;;;;;;;14.25;4.90;;;;;;;33.44;32.37;97720.56;4454921;32;20162;-82
2023/06/02 04:55:34;;;;;;;11.07;4.93;;;;;;;33.99;31.58;97718.81;4454474;32;20115;-82
2023/06/02 04:58:01;;;;;;;10.85;5.07;;;;;;;34.38;31.06;97725.59;4454848;32;20085;-82
2023/06/02 05:00:29;;;;;;;12.95;5.37;;;;;;;34.76;30.41;97721.78;4453379;32;20084;-83
2023/06/02 05:02:55;;;;;;;19.33;5.07;;;;;;;34.71;30.24;97717.13;4456001;32;20100;-83
2023/06/02 05:05:22;;;;;;;10.50;4.87;;;;;;;34.87;30.40;97715.66;4456955;32;20089;-83
2023/06/02 05:07:51;;;;;;;10.05;4.80;;;;;;;34.82;30.30;97723.56;4455596;32;20652;-83
2023/06/02 05:10:18;;;;;;;11.93;5.40;;;;;;;34.69;30.39;97729.13;4455819;32;20192;-83
2023/06/02 05:12:47;;;;;;;12.35;4.75;;;;;;;35.31;29.60;97735.03;4457015;32;20431;-83
2023/06/02 05:15:14;;;;;;;10.18;4.97;;;;;;;35.65;28.93;97731.59;4456604;32;20505;-83
2023/06/02 05:17:43;;;;;;;11.00;4.70;;;;;;;35.80;27.89;97731.09;4457024;32;20109;-83
2023/06/02 05:20:11;;;;;;;9.98;4.20;;;;;;;36.08;27.57;97735.78;4456152;32;20466;-83
2023/06/02 05:22:38;;;;;;;9.73;4.68;;;;;;;36.38;26.56;97732.94;4456527;32;20089;-83
2023/06/02 05:25:06;;;;;;;10.77;4.93;;;;;;;36.88;26.32;97729.59;4456942;32;20112;-83
2023/06/02 05:27:37;;;;;;;10.75;5.10;;;;;;;37.42;26.34;97739.94;4455612;32;20112;-82
2023/06/02 05:30:07;;;;;;;11.02;5.35;;;;;;;38.25;26.19;97743.63;4456210;32;20179;-82
2023/06/02 05:32:34;;;;;;;16.65;5.37;;;;;;;38.20;26.16;97741.66;4456866;32;20134;-82
2023/06/02 05:35:01;;;;;;;13.60;5.75;;;;;;;38.80;25.61;97743.47;4456700;32;20098;-82
2023/06/02 05:37:28;;;;;;;11.23;4.97;;;;;;;39.03;25.96;97745.06;4456354;32;20093;-82
2023/06/02 05:39:54;;;;;;;9.85;5.12;;;;;;;38.88;24.66;97748.41;4456508;32;20172;-82
2023/06/02 05:42:21;;;;;;;9.55;5.30;;;;;;;38.58;24.76;97742.66;4456766;32;20465;-82
2023/06/02 05:44:48;;;;;;;12.45;5.12;;;;;;;37.95;25.54;97746.69;4455164;32;20162;-82
2023/06/02 05:47:15;;;;;;;16.90;6.10;;;;;;;37.53;27.15;97747.13;4456533;32;20085;-82
2023/06/02 05:49:42;;;;;;;9.88;4.68;;;;;;;37.33;27.13;97751.13;4456212;32;20108;-82
2023/06/02 05:52:09;;;;;;;10.75;5.53;;;;;;;37.48;26.93;97747.84;4456618;32;20069;-82
2023/06/02 05:54:36;;;;;;;12.13;5.40;;;;;;;37.51;27.37;97747.38;4456745;32;20349;-82
2023/06/02 05:57:03;;;;;;;10.77;4.78;;;;;;;37.19;27.49;97743.56;4458190;32;20109;-82
2023/06/02 05:59:30;;;;;;;10.95;4.80;;;;;;;37.18;26.54;97744.63;4457825;32;20465;-81
2023/06/02 06:01:57;;;;;;;9.88;4.78;;;;;;;37.11;27.60;97746.66;4456793;32;20077;-81
2023/06/02 06:04:24;;;;;;;9.98;4.82;;;;;;;37.13;27.01;97755.31;4456063;32;20500;-81
2023/06/02 06:06:51;;;;;;;10.43;5.20;;;;;;;36.85;26.93;97746.22;4456333;32;20096;-81
2023/06/02 06:09:19;;;;;;;9.80;4.95;;;;;;;36.52;28.15;97746.91;4455079;32;20106;-81
2023/06/02 06:11:47;;;;;;;11.38;4.93;;;;;;;36.48;27.43;97740.41;4455194;32;20103;-81
2023/06/02 06:14:14;;;;;;;8.85;4.40;;;;;;;36.58;27.10;97745.13;4455453;32;20133;-80
2023/06/02 06:16:41;;;;;;;8.88;4.57;;;;;;;36.30;28.37;97745.91;4456671;32;20093;-83
2023/06/02 06:19:08;;;;;;;11.63;5.22;;;;;;;35.94;28.73;97742.44;4457435;32;20105;-83
2023/06/02 06:21:36;;;;;;;9.98;4.62;;;;;;;34.90;30.50;97743.91;4461026;32;20089;-84
2023/06/02 06:24:07;;;;;;;9.00;4.68;;;;;;;34.72;31.02;97736.69;4456626;32;20155;-83
2023/06/02 06:26:34;;;;;;;11.20;5.00;;;;;;;34.71;30.40;97741.25;4458306;32;20099;-83
2023/06/02 06:29:03;;;;;;;13.05;5.05;;;;;;;34.55;30.97;97741.03;4458005;32;20175;-82
2023/06/02 06:31:32;;;;;;;8.85;4.65;;;;;;;34.80;30.72;97745.25;4442500;32;20107;-81
2023/06/02 06:33:59;;;;;;;9.55;5.05;;;;;;;34.49;30.94;97750.81;4455973;32;20112;-81
2023/06/02 06:36:26;;;;;;;10.23;4.78;;;;;;;34.60;31.17;97752.72;4456245;32;20111;-82
2023/06/02 06:38:53;;;;;;;9.20;4.60;;;;;;;34.55;31.58;97757.94;4454749;32;20107;-82
2023/06/02 06:41:21;;;;;;;10.10;4.70;;;;;;;34.27;32.26;97755.78;4456302;32;20164;-81
2023/06/02 06:43:48;;;;;;;12.45;4.95;;;;;;;33.71;32.15;97755.91;4456240;32;20527;-82
2023/06/02 06:46:15;;;;;;;12.88;4.90;;;;;;;33.77;32.32;97755.03;4455853;32;20138;-82
2023/06/02 06:48:42;;;;;;;9.63;4.93;;;;;;;33.59;32.84;97756.62;4456157;32;20089;-81
2023/06/02 06:51:09;;;;;;;13.18;5.50;;;;;;;32.93;33.18;97757.09;4456133;32;20430;-82
2023/06/02 06:53:36;;;;;;;9.90;4.60;;;;;;;33.00;33.59;97762.41;4455888;32;20149;-82
2023/06/02 06:56:03;;;;;;;10.65;4.70;;;;;;;33.58;32.33;97752.31;4456413;32;20093;-81
2023/06/02 06:58:31;;;;;;;13.85;4.90;;;;;;;33.40;31.17;97754.13;4455903;32;20156;-81
2023/06/02 07:00:58;;;;;;;11.43;4.65;;;;;;;33.63;32.70;97754.34;4455817;32;20108;-82
2023/06/02 07:03:25;;;;;;;10.40;4.50;;;;;;;33.96;29.86;97756.72;4456061;32;20459;-82
2023/06/02 07:05:52;;;;;;;9.40;4.65;;;;;;;33.81;31.27;97759.72;4456047;32;20100;-82
2023/06/02 07:08:19;;;;;;;13.85;4.62;;;;;;;33.75;30.24;97759.78;4454441;32;20092;-81
2023/06/02 07:10:46;;;;;;;10.63;4.62;;;;;;;33.42;31.34;97770.78;4456084;32;20123;-81
2023/06/02 07:13:13;;;;;;;12.63;4.65;;;;;;;33.90;29.96;97761.09;4456120;32;20112;-82
2023/06/02 07:15:39;;;;;;;10.43;4.40;;;;;;;34.06;29.81;97765.06;4455613;32;20504;-82
2023/06/02 07:18:06;;;;;;;10.50;4.50;;;;;;;33.59;31.55;97764.66;4455979;32;20140;-82
2023/06/02 07:20:33;;;;;;;9.43;4.30;;;;;;;33.41;30.99;97772.62;4455534;32;20085;-82
2023/06/02 07:23:00;;;;;;;11.60;4.53;;;;;;;33.75;31.05;97763.28;4455569;32;20111;-82
2023/06/02 07:25:27;;;;;;;9.93;4.25;;;;;;;33.31;31.41;97767.75;4455615;32;20140;-82
2023/06/02 07:27:54;;;;;;;8.88;4.10;;;;;;;33.65;28.03;97760.28;4455754;32;20100;-82
2023/06/02 07:30:21;;;;;;;9.40;4.43;;;;;;;33.52;29.93;97765.75;4454724;32;20076;-82
2023/06/02 07:32:48;;;;;;;9.07;4.10;;;;;;;33.13;29.63;97769.50;4456051;32;20111;-82
2023/06/02 07:35:16;;;;;;;9.02;4.03;;;;;;;33.42;29.21;97766.25;4455659;32;20094;-84
2023/06/02 07:37:42;;;;;;;9.98;4.25;;;;;;;33.91;28.84;97760.06;4455893;32;20089;-83
2023/06/02 07:40:11;;;;;;;10.57;3.95;;;;;;;33.09;30.11;97755.78;4455478;32;20103;-83
2023/06/02 07:42:38;;;;;;;10.90;4.20;;;;;;;33.41;29.03;97758.44;4455544;32;20144;-83
2023/06/02 07:45:06;;;;;;;9.98;4.40;;;;;;;33.24;30.36;97750.91;4456045;32;20128;-82
2023/06/02 07:47:32;;;;;;;10.45;4.12;;;;;;;33.69;29.48;97753.44;4455586;32;20467;-82
2023/06/02 07:50:00;;;;;;;11.07;4.47;;;;;;;33.62;29.30;97756.22;4455375;32;20081;-82
2023/06/02 07:52:27;;;;;;;8.82;4.10;;;;;;;33.52;30.37;97753.22;4455721;32;20101;-82
2023/06/02 07:54:54;;;;;;;11.98;4.65;;;;;;;33.66;29.66;97752.03;4455805;32;20093;-82
2023/06/02 07:57:21;;;;;;;10.07;4.55;;;;;;;33.91;30.50;97753.88;4455166;32;20160;-82
2023/06/02 07:59:48;;;;;;;10.05;4.15;;;;;;;34.00;29.53;97754.44;4456020;32;20077;-81
2023/06/02 08:02:15;;;;;;;9.18;4.10;;;;;;;34.49;29.23;97751.63;4455905;32;20104;-81
2023/06/02 08:04:42;;;;;;;10.48;4.60;;;;;;;33.69;29.92;97752.63;4455444;32;20349;-82
2023/06/02 08:07:09;;;;;;;11.20;4.78;;;;;;;33.65;29.63;97744.25;4456052;32;20103;-82
2023/06/02 08:09:36;;;;;;;9.98;4.07;;;;;;;33.59;28.68;97745.94;4456296;32;20076;-83
2023/06/02 08:12:03;;;;;;;8.88;4.30;;;;;;;33.87;30.15;97750.84;4455657;32;20436;-82
2023/06/02 08:14:30;;;;;;;10.18;4.22;;;;;;;33.69;28.61;97758.00;4455429;32;20123;-82
2023/06/02 08:16:57;;;;;;;10.45;4.75;;;;;;;34.16;27.82;97749.31;4453918;32;20111;-82
2023/06/02 08:19:25;;;;;;;9.10;4.55;;;;;;;33.01;29.67;97754.16;4454851;32;20085;-82
2023/06/02 08:21:53;;;;;;;11.85;5.00;;;;;;;32.75;30.25;97754.28;4455275;32;20089;-83
2023/06/02 08:24:24;;;;;;;9.90;4.55;;;;;;;33.48;29.65;97752.00;4454985;32;20089;-82
2023/06/02 08:26:54;;;;;;;9.57;4.50;;;;;;;33.78;29.68;97748.66;4455123;32;20088;-82
2023/06/02 08:29:22;;;;;;;10.40;4.40;;;;;;;34.03;29.18;97746.78;4454996;32;20081;-82
2023/06/02 08:31:50;;;;;;;11.70;5.28;;;;;;;34.01;28.08;97748.84;4454846;32;20424;-82
2023/06/02 08:34:20;;;;;;;8.95;4.32;;;;;;;34.41;28.79;97749.25;4454954;32;20098;-82
2023/06/02 08:36:57;;;;;;;11.52;4.68;;;;;;;34.09;28.44;97742.38;4455208;32;20080;-82
2023/06/02 08:39:25;;;;;;;8.20;4.18;;;;;;;33.99;29.83;97752.78;4456932;32;20107;-81
2023/06/02 08:41:55;;;;;;;9.48;4.40;;;;;;;33.44;29.77;97745.44;4457222;32;20094;-81
2023/06/02 08:44:23;;;;;;;10.55;4.82;;;;;;;32.48;30.95;97748.25;4457027;32;20146;-82
2023/06/02 08:46:51;;;;;;;11.23;4.70;;;;;;;31.34;33.04;97751.28;4456640;32;20088;-81
2023/06/02 08:49:18;;;;;;;10.43;4.78;;;;;;;30.98;33.20;97749.78;4455607;32;20593;-81
2023/06/02 08:51:49;;;;;;;8.20;4.05;;;;;;;31.37;32.37;97748.22;4456030;32;20501;-82
2023/06/02 08:54:18;;;;;;;9.60;4.68;;;;;;;31.00;31.09;97753.06;4455615;32;20136;-82
2023/06/02 08:56:46;;;;;;;9.82;4.30;;;;;;;30.83;32.04;97749.12;4457049;32;20450;-82
2023/06/02 08:59:13;;;;;;;11.68;4.78;;;;;;;31.32;32.20;97742.69;4455393;32;20511;-83
2023/06/02 09:01:43;;;;;;;10.18;4.68;;;;;;;32.09;31.38;97743.84;4457058;32;20128;-83
2023/06/02 09:04:10;;;;;;;8.93;4.60;;;;;;;32.48;30.40;97738.41;4455803;32;20109;-83
2023/06/02 09:06:37;;;;;;;9.02;4.20;;;;;;;32.66;30.11;97732.34;4456538;32;20080;-82
2023/06/02 09:09:04;;;;;;;9.98;4.87;;;;;;;32.41;30.22;97734.09;4456998;32;20160;-83
2023/06/02 09:11:32;;;;;;;10.98;5.05;;;;;;;32.22;30.72;97717.94;4456908;32;20114;-83
2023/06/02 09:13:59;;;;;;;9.45;5.12;;;;;;;32.18;30.96;97734.56;4457621;32;20474;-83
2023/06/02 09:16:44;;;;;;;11.98;4.80;;;;;;;32.05;31.19;97731.97;4457761;32;20106;-83
2023/06/02 09:19:11;;;;;;;17.65;4.95;;;;;;;32.49;29.26;97724.00;4457974;32;20103;-83
2023/06/02 09:21:38;;;;;;;11.85;5.53;;;;;;;33.11;29.00;97732.31;4457975;32;20084;-83
2023/06/02 09:24:05;;;;;;;9.40;4.82;;;;;;;32.26;31.36;97726.34;4457349;32;20089;-83
2023/06/02 09:26:35;;;;;;;10.65;5.00;;;;;;;32.71;31.15;97734.38;4458099;32;20102;-83
2023/06/02 09:29:08;;;;;;;10.07;4.78;;;;;;;32.73;32.31;97729.63;4456389;32;20081;-83
2023/06/02 09:31:55;;;;;;;10.43;5.15;;;;;;;32.32;31.93;97733.53;4456903;32;20097;-83
2023/06/02 09:34:24;;;;;;;10.68;5.07;;;;;;;31.63;33.30;97715.37;4456377;32;20139;-83
2023/06/02 09:36:53;;;;;;;10.07;5.12;;;;;;;30.99;32.31;97721.31;4456763;32;20085;-82
2023/06/02 09:39:34;;;;;;;11.15;5.30;;;;;;;31.43;32.94;97719.91;4457335;32;20104;-83
2023/06/02 09:42:01;;;;;;;11.02;4.70;;;;;;;32.03;33.30;97718.00;4457297;32;20113;-83
2023/06/02 09:44:28;;;;;;;9.85;5.15;;;;;;;32.22;31.94;97717.09;4457453;32;20486;-83
2023/06/02 09:46:55;;;;;;;9.82;4.70;;;;;;;31.90;31.75;97711.69;4457553;32;20153;-83
2023/06/02 09:49:22;;;;;;;10.38;5.18;;;;;;;32.12;31.57;97714.09;4455771;32;20545;-83
2023/06/02 09:51:50;;;;;;;10.18;4.80;;;;;;;32.16;31.87;97717.97;4457045;32;20102;-83
2023/06/02 09:54:17;;;;;;;11.35;5.20;;;;;;;32.87;31.49;97725.91;4456757;32;20101;-83
2023/06/02 09:56:46;;;;;;;9.50;5.12;;;;;;;33.29;30.21;97712.84;4456926;32;20104;-83
2023/06/02 09:59:13;;;;;;;11.63;5.37;;;;;;;32.98;31.18;97721.72;4457327;32;20072;-83
2023/06/02 10:01:41;;;;;;;9.85;5.15;;;;;;;32.59;31.48;97718.22;4458045;32;20148;-83
2023/06/02 10:04:10;;;;;;;9.90;5.12;;;;;;;32.73;30.92;97722.44;4457587;32;20097;-83
2023/06/02 10:07:17;;;;;;;10.50;5.43;;;;;;;32.84;31.36;97726.31;4457570;32;20103;-83
2023/06/02 10:10:15;;;;;;;9.20;4.93;;;;;;;33.04;30.72;97728.84;4444829;32;20085;-82
2023/06/02 10:13:00;;;;;;;12.57;5.35;;;;;;;33.27;30.97;97726.41;4458482;32;20098;-83
2023/06/02 10:15:42;;;;;;;10.35;4.65;;;;;;;32.41;31.29;97726.09;4458685;32;20164;-83
2023/06/02 10:18:28;;;;;;;9.68;4.78;;;;;;;32.61;31.89;97712.66;4458151;32;20497;-82
2023/06/02 10:21:12;;;;;;;12.02;4.82;;;;;;;33.88;30.44;97707.00;4458716;32;20115;-82
2023/06/02 10:24:07;;;;;;;9.60;4.85;;;;;;;32.61;30.85;97708.13;4456953;32;20151;-83
2023/06/02 10:27:17;;;;;;;11.38;4.97;;;;;;;33.87;30.92;97702.69;4457904;32;20448;-83
2023/06/02 10:29:45;;;;;;;12.15;4.93;;;;;;;33.98;29.88;97705.66;4447398;32;20065;-83
2023/06/02 10:32:20;;;;;;;9.88;4.20;;;;;;;33.51;29.73;97700.75;4456384;32;20123;-83
2023/06/02 10:34:54;;;;;;;12.10;4.95;;;;;;;33.77;29.11;97690.81;4457982;32;20108;-83
2023/06/02 10:37:23;;;;;;;11.18;4.70;;;;;;;33.80;30.27;97693.03;4458876;32;20092;-83
2023/06/02 10:39:55;;;;;;;9.60;4.25;;;;;;;33.96;29.03;97695.19;4460031;32;20495;-83
2023/06/02 10:42:27;;;;;;;9.55;3.55;;;;;;;33.43;29.48;97694.88;4463058;32;20096;-83
2023/06/02 10:45:22;;;;;;;11.40;3.90;;;;;;;33.70;24.43;97690.87;4460670;32;20121;-83
2023/06/02 10:47:49;;;;;;;8.05;4.00;;;;;;;33.98;28.02;97700.31;4458043;32;20064;-82
2023/06/02 10:50:21;;;;;;;8.45;3.60;;;;;;;34.49;25.87;97691.87;4459117;32;20447;-83
2023/06/02 10:53:00;;;;;;;5.65;2.50;;;;;;;33.48;25.83;97674.44;4456668;32;20121;-82
2023/06/02 10:55:29;;;;;;;7.72;2.78;;;;;;;33.43;21.76;97687.66;4456181;32;20105;-82
2023/06/02 10:58:06;;;;;;;7.03;3.08;;;;;;;33.29;23.12;97680.78;4456312;32;20096;-81
2023/06/02 11:00:35;;;;;;;9.70;3.42;;;;;;;34.07;22.81;97686.41;4455325;32;20108;-82
2023/06/02 11:03:03;;;;;;;9.40;3.75;;;;;;;34.45;23.23;97685.31;4456304;32;20085;-82
2023/06/02 11:05:32;;;;;;;10.15;3.78;;;;;;;33.92;25.18;97678.75;4455897;32;20113;-82
2023/06/02 11:08:11;;;;;;;6.85;3.40;;;;;;;32.88;24.23;97687.47;4456053;32;20424;-82
2023/06/02 11:10:54;;;;;;;7.40;3.45;;;;;;;34.35;22.68;97675.16;4456144;32;20151;-82
2023/06/02 11:13:22;;;;;;;9.20;3.70;;;;;;;34.95;23.09;97683.19;4455877;32;20081;-82
2023/06/02 11:15:58;;;;;;;9.75;4.00;;;;;;;33.96;24.23;97675.63;4456220;32;20124;-82
2023/06/02 11:18:27;;;;;;;;;;;;;;;33.44;26.06;97677.78;4456453;32;20115;-82
2023/06/02 11:21:00;;;;;;;10.48;3.97;;;;;;;33.41;26.05;97667.53;4455591;32;19961;-82
2023/06/02 11:23:27;;;;;;;9.00;3.75;;;;;;;34.64;26.09;97667.34;4456299;32;20407;-82
2023/06/02 11:26:08;;;;;;;12.40;4.07;;;;;;;33.99;25.95;97672.50;4456941;32;20158;-82
2023/06/02 11:28:35;;;;;;;9.45;4.30;;;;;;;33.16;27.08;97667.50;4455717;32;20099;-81
2023/06/02 11:31:08;;;;;;;9.70;4.00;;;;;;;33.86;27.08;97660.87;4456727;32;20093;-81
2023/06/02 11:33:42;;;;;;;10.07;4.30;;;;;;;33.90;26.33;97659.41;4457437;32;20107;-81
2023/06/02 11:36:10;;;;;;;8.13;3.90;;;;;;;34.05;26.02;97667.06;4457440;32;20105;-81